Time;durP1;ratioP1;P1;durP2;ratioP2;P2;SDS_P1;SDS_P2;PMS_P1;PMS_P2;Temp;Humidity;BMP_temperature;BMP_pressure;BME280_temperature;BME280_humidity;BME280_pressure;Samples;Min_cycle;Max_cycle;Signal;HPM_P1;HPM_P2
2023/06/27 00:01:40;;;;;;;4.22;1.67;;;;;;;;;;5101591;28;20199;-71
2023/06/27 00:04:06;;;;;;;2.83;1.30;;;;;;;;;;5102149;28;20541;-71
2023/06/27 00:06:37;;;;;;;4.63;1.60;;;;;;;;;;5101639;28;20195;-71
2023/06/27 00:09:05;;;;;;;4.10;1.40;;;;;;;;;;5101530;28;20199;-71
2023/06/27 00:11:33;;;;;;;2.72;1.80;;;;;;;;;;5101370;28;20430;-71
2023/06/27 00:13:59;;;;;;;7.20;1.80;;;;;;;;;;5101382;28;20211;-71
2023/06/27 00:16:27;;;;;;;4.80;1.33;;;;;;;;;;5103047;28;20199;-71
2023/06/27 00:18:54;;;;;;;3.00;1.83;;;;;;;;;;5105609;28;20451;-71
2023/06/27 00:21:21;;;;;;;5.68;1.40;;;;;;;;;;5105212;28;20195;-71
2023/06/27 00:23:48;;;;;;;5.75;1.58;;;;;;;;;;5105109;28;20579;-72
2023/06/27 00:26:14;;;;;;;2.88;1.65;;;;;;;;;;5105136;28;20217;-72
2023/06/27 00:28:42;;;;;;;1.35;1.10;;;;;;;;;;5104800;28;20230;-72
2023/06/27 00:31:08;;;;;;;5.15;1.48;;;;;;;;;;5104901;28;20195;-72
2023/06/27 00:33:35;;;;;;;6.57;1.58;;;;;;;;;;5105051;28;20215;-72
2023/06/27 00:36:01;;;;;;;1.63;1.45;;;;;;;;;;5104972;28;20199;-72
2023/06/27 00:38:27;;;;;;;8.30;1.65;;;;;;;;;;5104934;28;20467;-72
2023/06/27 00:40:54;;;;;;;4.88;1.67;;;;;;;;;;5096327;28;20266;-72
2023/06/27 00:43:20;;;;;;;1.77;1.42;;;;;;;;;;5104532;28;20199;-72
2023/06/27 00:45:47;;;;;;;3.10;1.70;;;;;;;;;;5104520;28;20207;-72
2023/06/27 00:48:14;;;;;;;2.00;1.38;;;;;;;;;;5104883;28;20199;-72
2023/06/27 00:50:41;;;;;;;2.17;1.45;;;;;;;;;;5104556;28;20568;-72
2023/06/27 00:53:07;;;;;;;3.95;1.73;;;;;;;;;;5104604;28;20232;-72
2023/06/27 00:55:34;;;;;;;2.42;1.35;;;;;;;;;;5104298;28;20204;-72
2023/06/27 00:58:01;;;;;;;2.75;1.60;;;;;;;;;;5104385;28;20196;-71
2023/06/27 01:00:27;;;;;;;2.40;1.50;;;;;;;;;;5104434;28;20218;-71
2023/06/27 01:02:55;;;;;;;3.55;1.50;;;;;;;;;;5104196;28;20192;-71
2023/06/27 01:05:21;;;;;;;5.78;1.70;;;;;;;;;;5104456;28;20195;-71
2023/06/27 01:07:50;;;;;;;3.67;1.52;;;;;;;;;;5104276;28;20381;-71
2023/06/27 01:10:21;;;;;;;2.83;1.38;;;;;;;;;;5103859;28;20195;-71
2023/06/27 01:12:51;;;;;;;6.45;1.63;;;;;;;;;;5103852;28;20223;-71
2023/06/27 01:15:18;;;;;;;3.35;1.55;;;;;;;;;;5104365;28;20199;-72
2023/06/27 01:17:45;;;;;;;2.63;1.38;;;;;;;;;;5103998;28;20462;-72
2023/06/27 01:20:13;;;;;;;2.30;1.40;;;;;;;;;;5103885;28;20518;-72
2023/06/27 01:22:42;;;;;;;3.42;1.33;;;;;;;;;;5103939;28;20199;-72
2023/06/27 01:25:12;;;;;;;3.95;1.60;;;;;;;;;;5103748;28;20201;-72
2023/06/27 01:27:39;;;;;;;1.60;1.45;;;;;;;;;;5103873;28;20215;-72
2023/06/27 01:30:06;;;;;;;3.03;1.23;;;;;;;;;;5103943;28;20199;-72
2023/06/27 01:32:35;;;;;;;1.67;1.15;;;;;;;;;;5103665;28;20226;-72
2023/06/27 01:35:04;;;;;;;4.15;1.42;;;;;;;;;;5103704;28;20202;-72
2023/06/27 01:37:35;;;;;;;4.70;1.70;;;;;;;;;;5103519;28;20397;-72
2023/06/27 01:40:02;;;;;;;3.17;1.50;;;;;;;;;;5095346;28;20233;-72
2023/06/27 01:42:37;;;;;;;5.35;1.73;;;;;;;;;;5103631;28;20191;-72
2023/06/27 01:45:06;;;;;;;7.55;1.70;;;;;;;;;;5095975;28;20206;-72
2023/06/27 01:47:33;;;;;;;2.47;1.40;;;;;;;;;;5103343;28;20195;-72
2023/06/27 01:50:00;;;;;;;2.15;1.67;;;;;;;;;;5103294;28;20209;-71
2023/06/27 01:52:26;;;;;;;4.63;1.35;;;;;;;;;;5103532;28;20226;-71
2023/06/27 01:54:52;;;;;;;3.13;1.40;;;;;;;;;;5103358;28;20203;-71
2023/06/27 01:57:18;;;;;;;3.42;1.45;;;;;;;;;;5103336;28;20477;-71
2023/06/27 01:59:46;;;;;;;1.50;1.25;;;;;;;;;;5102991;28;20200;-71
2023/06/27 02:02:12;;;;;;;2.85;1.40;;;;;;;;;;5103343;28;20271;-72
2023/06/27 02:04:39;;;;;;;6.20;1.40;;;;;;;;;;5103002;28;20202;-72
2023/06/27 02:07:05;;;;;;;4.07;1.80;;;;;;;;;;5103230;28;20204;-72
2023/06/27 02:09:31;;;;;;;1.85;1.25;;;;;;;;;;5102983;28;20199;-72
2023/06/27 02:11:58;;;;;;;1.83;1.40;;;;;;;;;;5094744;28;20202;-72
2023/06/27 02:14:24;;;;;;;3.47;1.27;;;;;;;;;;5103018;28;20212;-72
2023/06/27 02:16:52;;;;;;;3.17;1.42;;;;;;;;;;5102991;28;20527;-72
2023/06/27 02:19:18;;;;;;;2.20;1.48;;;;;;;;;;5102797;28;20196;-72
2023/06/27 02:21:44;;;;;;;2.60;1.23;;;;;;;;;;5103004;28;20230;-72
2023/06/27 02:24:10;;;;;;;4.45;1.52;;;;;;;;;;5102887;28;20215;-72
2023/06/27 02:26:37;;;;;;;4.97;1.35;;;;;;;;;;5102579;28;20196;-72
2023/06/27 02:29:03;;;;;;;1.63;1.48;;;;;;;;;;5102588;28;20215;-72
2023/06/27 02:31:29;;;;;;;2.83;1.38;;;;;;;;;;5102428;28;20525;-72
2023/06/27 02:33:57;;;;;;;2.08;1.38;;;;;;;;;;5102511;28;20218;-72
2023/06/27 02:36:27;;;;;;;2.15;1.52;;;;;;;;;;5102714;28;20198;-72
2023/06/27 02:38:54;;;;;;;3.45;1.50;;;;;;;;;;5102162;28;20207;-72
2023/06/27 02:41:21;;;;;;;3.63;1.70;;;;;;;;;;5102270;28;20203;-72
2023/06/27 02:43:47;;;;;;;2.75;1.52;;;;;;;;;;5102445;28;20195;-72
2023/06/27 02:46:14;;;;;;;2.47;1.50;;;;;;;;;;5102669;28;20267;-72
2023/06/27 02:48:40;;;;;;;4.50;1.50;;;;;;;;;;5102338;28;20218;-72
2023/06/27 02:51:08;;;;;;;3.70;1.65;;;;;;;;;;5102332;28;20525;-72
2023/06/27 02:53:34;;;;;;;4.43;1.70;;;;;;;;;;5101133;28;20204;-72
2023/06/27 02:56:02;;;;;;;4.35;1.48;;;;;;;;;;5093191;28;20397;-72
2023/06/27 02:58:29;;;;;;;2.47;1.30;;;;;;;;;;5102027;28;20203;-72
2023/06/27 03:00:55;;;;;;;4.25;1.63;;;;;;;;;;5101467;28;20205;-72
2023/06/27 03:03:21;;;;;;;2.08;1.40;;;;;;;;;;5101821;28;20517;-72
2023/06/27 03:05:48;;;;;;;4.72;1.40;;;;;;;;;;5101518;28;20200;-72
2023/06/27 03:08:16;;;;;;;5.97;1.55;;;;;;;;;;5101392;28;20502;-72
2023/06/27 03:10:42;;;;;;;2.33;1.52;;;;;;;;;;5101059;28;20230;-72
2023/06/27 03:13:09;;;;;;;3.58;1.40;;;;;;;;;;5101631;28;20246;-72
2023/06/27 03:15:35;;;;;;;4.38;1.52;;;;;;;;;;5102343;28;20219;-72
2023/06/27 03:18:01;;;;;;;7.07;1.42;;;;;;;;;;5102049;28;20202;-72
2023/06/27 03:20:27;;;;;;;2.83;1.65;;;;;;;;;;5102393;28;20200;-72
2023/06/27 03:22:54;;;;;;;4.20;1.63;;;;;;;;;;5101903;28;20202;-72
2023/06/27 03:25:21;;;;;;;4.03;1.80;;;;;;;;;;5101809;28;20395;-72
2023/06/27 03:27:48;;;;;;;2.72;1.45;;;;;;;;;;5101893;28;20238;-72
2023/06/27 03:30:14;;;;;;;3.35;1.27;;;;;;;;;;5102069;28;20394;-72
2023/06/27 03:32:40;;;;;;;1.40;1.15;;;;;;;;;;5101937;28;20195;-72
2023/06/27 03:35:07;;;;;;;2.78;1.20;;;;;;;;;;5102178;28;20196;-72
2023/06/27 03:37:34;;;;;;;2.55;1.40;;;;;;;;;;5101803;28;20376;-72
2023/06/27 03:40:00;;;;;;;3.53;1.48;;;;;;;;;;5101616;28;20202;-72
2023/06/27 03:42:28;;;;;;;3.10;1.52;;;;;;;;;;5102100;28;20433;-72
2023/06/27 03:44:54;;;;;;;3.88;1.58;;;;;;;;;;5102054;28;20196;-72
2023/06/27 03:47:20;;;;;;;1.52;1.40;;;;;;;;;;5101906;28;20238;-72
2023/06/27 03:49:46;;;;;;;4.03;1.50;;;;;;;;;;5101643;28;20380;-72
2023/06/27 03:52:13;;;;;;;3.05;1.52;;;;;;;;;;5104807;28;20196;-72
2023/06/27 03:54:39;;;;;;;1.73;1.30;;;;;;;;;;5105419;28;20219;-72
2023/06/27 03:57:05;;;;;;;1.50;1.38;;;;;;;;;;5105546;28;20199;-72
2023/06/27 03:59:33;;;;;;;3.60;1.85;;;;;;;;;;5105477;28;20416;-72
2023/06/27 04:01:59;;;;;;;3.30;1.30;;;;;;;;;;5105576;28;20204;-72
2023/06/27 04:04:26;;;;;;;5.63;1.67;;;;;;;;;;5105513;28;20192;-72
2023/06/27 04:06:52;;;;;;;3.83;1.30;;;;;;;;;;5105496;28;20394;-72
2023/06/27 04:09:18;;;;;;;3.97;1.73;;;;;;;;;;5104924;28;20207;-72
2023/06/27 04:11:45;;;;;;;2.22;1.55;;;;;;;;;;5105376;28;20203;-72
2023/06/27 04:14:11;;;;;;;4.28;1.63;;;;;;;;;;5105428;28;20215;-72
2023/06/27 04:16:38;;;;;;;2.50;1.70;;;;;;;;;;5105329;28;20442;-71
2023/06/27 04:19:05;;;;;;;4.20;1.65;;;;;;;;;;5104901;28;20263;-70
2023/06/27 04:21:31;;;;;;;5.97;1.80;;;;;;;;;;5104808;28;20518;-70
2023/06/27 04:23:59;;;;;;;3.15;1.70;;;;;;;;;;5104704;28;20267;-70
2023/06/27 04:26:25;;;;;;;2.53;1.67;;;;;;;;;;5105185;28;20233;-70
2023/06/27 04:28:51;;;;;;;3.22;1.23;;;;;;;;;;5105221;28;20216;-70
2023/06/27 04:31:18;;;;;;;5.40;1.55;;;;;;;;;;5104543;28;20203;-70
2023/06/27 04:33:47;;;;;;;3.30;1.50;;;;;;;;;;5104825;28;20219;-70
2023/06/27 04:36:15;;;;;;;3.40;1.70;;;;;;;;;;5104642;28;20248;-70
2023/06/27 04:38:43;;;;;;;3.65;1.50;;;;;;;;;;5104855;28;20267;-70
2023/06/27 04:41:10;;;;;;;3.85;1.70;;;;;;;;;;5104576;28;20227;-70
2023/06/27 04:43:39;;;;;;;6.63;1.50;;;;;;;;;;5104790;28;20196;-71
2023/06/27 04:46:05;;;;;;;3.95;1.50;;;;;;;;;;5104386;28;20234;-71
2023/06/27 04:48:31;;;;;;;1.52;1.40;;;;;;;;;;5104635;28;20196;-70
2023/06/27 04:50:59;;;;;;;5.18;1.35;;;;;;;;;;5104102;28;20214;-70
2023/06/27 04:53:25;;;;;;;7.15;1.63;;;;;;;;;;5104832;28;20216;-70
2023/06/27 04:55:52;;;;;;;1.52;1.42;;;;;;;;;;5104707;28;20221;-70
2023/06/27 04:58:19;;;;;;;1.75;1.50;;;;;;;;;;5104723;28;20207;-70
2023/06/27 05:00:47;;;;;;;4.43;1.58;;;;;;;;;;5104200;28;20206;-70
2023/06/27 05:03:13;;;;;;;4.43;1.35;;;;;;;;;;5104037;28;20202;-70
2023/06/27 05:05:39;;;;;;;2.25;1.50;;;;;;;;;;5104136;28;20500;-70
2023/06/27 05:08:07;;;;;;;2.92;1.48;;;;;;;;;;5104186;28;20507;-70
2023/06/27 05:10:34;;;;;;;1.67;1.50;;;;;;;;;;5104378;28;20499;-62
2023/06/27 05:13:01;;;;;;;5.90;1.52;;;;;;;;;;5104423;28;20203;-62
2023/06/27 05:15:27;;;;;;;1.55;1.42;;;;;;;;;;5104262;28;20267;-61
2023/06/27 05:17:54;;;;;;;3.20;1.30;;;;;;;;;;5103523;28;20199;-62
2023/06/27 05:20:22;;;;;;;5.53;1.70;;;;;;;;;;5103762;28;20206;-61
2023/06/27 05:22:48;;;;;;;5.10;1.40;;;;;;;;;;5103970;28;20223;-62
2023/06/27 05:25:16;;;;;;;3.15;1.20;;;;;;;;;;5103987;28;20541;-62
2023/06/27 05:27:42;;;;;;;2.30;1.58;;;;;;;;;;5103618;28;20582;-62
2023/06/27 05:30:09;;;;;;;1.95;1.45;;;;;;;;;;5103463;28;20414;-62
2023/06/27 05:32:35;;;;;;;3.58;1.40;;;;;;;;;;5103530;28;20196;-62
2023/06/27 05:35:02;;;;;;;3.92;1.33;;;;;;;;;;5103487;28;20215;-62
2023/06/27 05:37:28;;;;;;;4.43;1.58;;;;;;;;;;5103651;28;20203;-62
2023/06/27 05:39:54;;;;;;;1.85;1.55;;;;;;;;;;5097737;28;20214;-62
2023/06/27 05:42:22;;;;;;;6.32;1.55;;;;;;;;;;5098035;28;20234;-62
2023/06/27 05:44:48;;;;;;;1.92;1.30;;;;;;;;;;5098000;28;20216;-62
2023/06/27 05:47:14;;;;;;;1.77;1.67;;;;;;;;;;5097906;28;20200;-62
2023/06/27 05:49:40;;;;;;;4.40;1.45;;;;;;;;;;5098295;28;20219;-64
2023/06/27 05:52:07;;;;;;;3.00;1.58;;;;;;;;;;5096815;28;20208;-64
2023/06/27 05:54:33;;;;;;;1.42;1.30;;;;;;;;;;5094216;28;20561;-64
2023/06/27 05:56:59;;;;;;;5.78;1.75;;;;;;;;;;5093970;28;20211;-64
2023/06/27 05:59:27;;;;;;;5.63;1.42;;;;;;;;;;5095166;28;20211;-64
2023/06/27 06:01:53;;;;;;;3.85;1.42;;;;;;;;;;5094816;28;20539;-64
2023/06/27 06:04:20;;;;;;;1.95;1.20;;;;;;;;;;5095532;28;20227;-64
2023/06/27 06:06:46;;;;;;;2.10;1.35;;;;;;;;;;5095443;28;20415;-64
2023/06/27 06:09:12;;;;;;;4.70;1.70;;;;;;;;;;5086769;28;20212;-64
2023/06/27 06:11:39;;;;;;;2.00;1.40;;;;;;;;;;5095514;28;20214;-64
2023/06/27 06:14:06;;;;;;;2.35;1.52;;;;;;;;;;5094343;28;20228;-64
2023/06/27 06:16:34;;;;;;;5.78;1.38;;;;;;;;;;5095436;28;20214;-64
2023/06/27 06:19:00;;;;;;;4.25;1.48;;;;;;;;;;5095050;28;20212;-64
2023/06/27 06:21:27;;;;;;;2.53;1.58;;;;;;;;;;5094542;28;20211;-64
2023/06/27 06:23:53;;;;;;;3.78;1.33;;;;;;;;;;5094319;28;20547;-64
2023/06/27 06:26:19;;;;;;;4.13;1.65;;;;;;;;;;5095192;28;20223;-64
2023/06/27 06:28:46;;;;;;;4.93;1.23;;;;;;;;;;5094464;28;20234;-64
2023/06/27 06:31:16;;;;;;;2.90;1.20;;;;;;;;;;5094318;28;20551;-64
2023/06/27 06:33:44;;;;;;;5.22;1.67;;;;;;;;;;5094750;28;20477;-64
2023/06/27 06:36:10;;;;;;;5.63;1.58;;;;;;;;;;5094194;28;20284;-64
2023/06/27 06:38:37;;;;;;;2.25;1.70;;;;;;;;;;5094307;28;20329;-64
2023/06/27 06:41:03;;;;;;;2.83;1.48;;;;;;;;;;5093540;28;20219;-62
2023/06/27 06:43:29;;;;;;;5.80;1.52;;;;;;;;;;5094010;28;20212;-63
2023/06/27 06:45:56;;;;;;;3.03;1.20;;;;;;;;;;5096368;28;20473;-62
2023/06/27 06:48:23;;;;;;;1.98;1.30;;;;;;;;;;5095282;28;20527;-62
2023/06/27 06:50:52;;;;;;;3.13;1.27;;;;;;;;;;5095159;28;20235;-63
2023/06/27 06:53:18;;;;;;;4.90;1.10;;;;;;;;;;5095666;28;20196;-62
2023/06/27 06:55:45;;;;;;;4.05;1.00;;;;;;;;;;5096270;28;20211;-61
2023/06/27 06:58:11;;;;;;;2.83;1.20;;;;;;;;;;5095646;28;20215;-61
2023/06/27 07:00:37;;;;;;;1.58;1.35;;;;;;;;;;5096473;28;20506;-61
2023/06/27 07:03:04;;;;;;;1.48;1.20;;;;;;;;;;5096109;28;20211;-61
2023/06/27 07:05:30;;;;;;;2.25;1.10;;;;;;;;;;5095270;28;20269;-62
2023/06/27 07:07:58;;;;;;;4.38;1.35;;;;;;;;;;5095410;28;20310;-61
2023/06/27 07:10:24;;;;;;;3.67;1.20;;;;;;;;;;5094683;28;20449;-62
2023/06/27 07:12:50;;;;;;;4.82;1.63;;;;;;;;;;5096176;28;20208;-62
2023/06/27 07:15:17;;;;;;;4.07;1.20;;;;;;;;;;5096246;28;20780;-62
2023/06/27 07:17:44;;;;;;;1.60;1.10;;;;;;;;;;5096134;28;20211;-62
2023/06/27 07:20:11;;;;;;;2.75;1.20;;;;;;;;;;5095232;28;20207;-61
2023/06/27 07:22:38;;;;;;;5.65;1.42;;;;;;;;;;5095822;28;20438;-62
2023/06/27 07:25:06;;;;;;;2.75;1.27;;;;;;;;;;5096390;28;20227;-61
2023/06/27 07:27:32;;;;;;;6.03;1.52;;;;;;;;;;5099682;28;20566;-61
2023/06/27 07:29:59;;;;;;;2.22;1.60;;;;;;;;;;5098426;28;20252;-62
2023/06/27 07:32:25;;;;;;;4.07;1.45;;;;;;;;;;5099416;28;20214;-62
2023/06/27 07:34:51;;;;;;;6.43;1.50;;;;;;;;;;5099652;28;20235;-62
2023/06/27 07:37:18;;;;;;;2.92;1.10;;;;;;;;;;5099950;28;20214;-62
2023/06/27 07:39:44;;;;;;;2.60;1.35;;;;;;;;;;5099793;28;20218;-61
2023/06/27 07:42:12;;;;;;;4.60;1.40;;;;;;;;;;5100067;28;20211;-62
2023/06/27 07:44:38;;;;;;;2.03;1.45;;;;;;;;;;5099253;28;20567;-62
2023/06/27 07:47:05;;;;;;;2.08;1.35;;;;;;;;;;5099824;28;20207;-61
2023/06/27 07:49:32;;;;;;;5.28;1.35;;;;;;;;;;5099015;28;20207;-61
2023/06/27 07:51:58;;;;;;;6.30;1.50;;;;;;;;;;5098962;28;20218;-61
2023/06/27 07:54:26;;;;;;;3.00;1.27;;;;;;;;;;5098882;28;20208;-61
2023/06/27 07:56:54;;;;;;;2.80;1.20;;;;;;;;;;5099093;28;20328;-61
2023/06/27 07:59:22;;;;;;;5.47;1.50;;;;;;;;;;5098936;28;20542;-61
2023/06/27 08:01:48;;;;;;;3.42;1.50;;;;;;;;;;5098241;28;20216;-61
2023/06/27 08:04:15;;;;;;;6.57;1.30;;;;;;;;;;5098813;28;20294;-61
2023/06/27 08:06:41;;;;;;;3.17;1.40;;;;;;;;;;5098722;28;20215;-61
2023/06/27 08:09:08;;;;;;;4.47;1.60;;;;;;;;;;5099353;28;20241;-61
2023/06/27 08:11:34;;;;;;;3.13;1.27;;;;;;;;;;5099330;28;20225;-61
2023/06/27 08:14:01;;;;;;;4.07;1.60;;;;;;;;;;5098203;28;20460;-61
2023/06/27 08:16:28;;;;;;;1.58;1.27;;;;;;;;;;5098998;28;20207;-61
2023/06/27 08:18:55;;;;;;;3.42;1.27;;;;;;;;;;5098915;28;20217;-61
2023/06/27 08:21:21;;;;;;;1.85;1.50;;;;;;;;;;5098109;28;20207;-61
2023/06/27 08:23:47;;;;;;;5.72;1.52;;;;;;;;;;5098924;28;20212;-61
2023/06/27 08:26:14;;;;;;;1.48;1.20;;;;;;;;;;5098983;28;20229;-61
2023/06/27 08:28:40;;;;;;;8.00;1.58;;;;;;;;;;5098526;28;20227;-61
2023/06/27 08:31:07;;;;;;;2.97;1.50;;;;;;;;;;5098229;28;20207;-61
2023/06/27 08:33:34;;;;;;;2.30;1.60;;;;;;;;;;5099124;28;20534;-61
2023/06/27 08:36:01;;;;;;;3.80;1.58;;;;;;;;;;5097657;28;20204;-61
2023/06/27 08:38:27;;;;;;;3.40;1.50;;;;;;;;;;5098323;28;20218;-61
2023/06/27 08:40:54;;;;;;;6.72;1.45;;;;;;;;;;5098471;28;20219;-61
2023/06/27 08:43:21;;;;;;;4.10;1.33;;;;;;;;;;5097724;28;20203;-61
2023/06/27 08:45:48;;;;;;;3.42;1.48;;;;;;;;;;5098120;28;20227;-61
2023/06/27 08:48:15;;;;;;;6.05;1.77;;;;;;;;;;5098561;28;20234;-61
2023/06/27 08:50:43;;;;;;;1.23;1.13;;;;;;;;;;5097235;28;20203;-61
2023/06/27 08:53:12;;;;;;;3.72;1.50;;;;;;;;;;5097013;28;20283;-62
2023/06/27 08:55:40;;;;;;;3.53;1.60;;;;;;;;;;5093409;28;20675;-62
2023/06/27 08:58:09;;;;;;;2.17;1.38;;;;;;;;;;5096977;28;20218;-62
2023/06/27 09:00:35;;;;;;;8.60;1.48;;;;;;;;;;5090893;28;20208;-62
2023/06/27 09:03:02;;;;;;;4.82;1.60;;;;;;;;;;5097128;28;20215;-62
2023/06/27 09:05:29;;;;;;;5.00;1.75;;;;;;;;;;5097683;28;20227;-62
2023/06/27 09:07:57;;;;;;;5.80;1.90;;;;;;;;;;5097145;28;20250;-62
2023/06/27 09:10:24;;;;;;;2.63;1.50;;;;;;;;;;5097856;28;20214;-62
2023/06/27 09:12:51;;;;;;;1.48;1.40;;;;;;;;;;5097567;28;20417;-62
2023/06/27 09:15:17;;;;;;;3.88;1.73;;;;;;;;;;5097144;28;20219;-62
2023/06/27 09:17:43;;;;;;;6.05;1.70;;;;;;;;;;5097347;28;20211;-61
2023/06/27 09:20:10;;;;;;;4.43;1.48;;;;;;;;;;5097144;28;20211;-61
2023/06/27 09:22:37;;;;;;;3.22;1.83;;;;;;;;;;5097715;28;20219;-61
2023/06/27 09:25:15;;;;;;;1.77;1.65;;;;;;;;;;5097364;28;20226;-61
2023/06/27 09:27:41;;;;;;;3.85;1.77;;;;;;;;;;5097559;28;20231;-62
2023/06/27 09:30:08;;;;;;;2.25;1.65;;;;;;;;;;5096492;28;20283;-62
2023/06/27 09:32:35;;;;;;;2.75;1.80;;;;;;;;;;5097850;28;20417;-61
2023/06/27 09:35:02;;;;;;;5.47;1.65;;;;;;;;;;5097537;28;20395;-61
2023/06/27 09:37:29;;;;;;;6.13;1.80;;;;;;;;;;5096313;28;20531;-61
2023/06/27 09:39:55;;;;;;;3.08;1.60;;;;;;;;;;5097793;28;20392;-62
2023/06/27 09:42:23;;;;;;;8.02;1.63;;;;;;;;;;5097652;28;20215;-62
2023/06/27 09:44:49;;;;;;;3.55;1.98;;;;;;;;;;5096710;28;20226;-61
2023/06/27 09:47:16;;;;;;;5.40;1.80;;;;;;;;;;5097121;28;20212;-60
2023/06/27 09:49:42;;;;;;;8.30;2.00;;;;;;;;;;5095462;28;20202;-62
2023/06/27 09:52:11;;;;;;;3.83;1.63;;;;;;;;;;5096717;28;20253;-62
2023/06/27 09:54:41;;;;;;;3.25;1.67;;;;;;;;;;5096893;28;20211;-61
2023/06/27 09:57:12;;;;;;;5.93;1.85;;;;;;;;;;5096763;28;20495;-61
2023/06/27 09:59:39;;;;;;;5.55;1.60;;;;;;;;;;5096086;28;20233;-61
2023/06/27 10:02:11;;;;;;;2.38;1.63;;;;;;;;;;5096121;28;20282;-61
2023/06/27 10:04:37;;;;;;;6.43;1.55;;;;;;;;;;5089908;28;20554;-60
2023/06/27 10:07:04;;;;;;;3.22;1.90;;;;;;;;;;5096358;28;20215;-61
2023/06/27 10:09:30;;;;;;;5.53;1.75;;;;;;;;;;5095678;28;20242;-61
2023/06/27 10:11:57;;;;;;;2.70;1.60;;;;;;;;;;5095931;28;20211;-61
2023/06/27 10:14:23;;;;;;;5.22;1.65;;;;;;;;;;5095852;28;20199;-61
2023/06/27 10:16:52;;;;;;;2.80;1.80;;;;;;;;;;5095837;28;20542;-61
2023/06/27 10:19:19;;;;;;;5.68;1.75;;;;;;;;;;5096301;28;20471;-61
2023/06/27 10:21:45;;;;;;;5.90;1.50;;;;;;;;;;5095680;28;20514;-61
2023/06/27 10:24:13;;;;;;;3.53;1.80;;;;;;;;;;5096029;28;20229;-61
2023/06/27 10:26:39;;;;;;;2.65;1.40;;;;;;;;;;5096138;28;20222;-61
2023/06/27 10:29:13;;;;;;;3.28;1.65;;;;;;;;;;5095694;28;20483;-61
2023/06/27 10:31:42;;;;;;;4.20;1.55;;;;;;;;;;5090342;28;20199;-61
2023/06/27 10:34:11;;;;;;;5.15;1.58;;;;;;;;;;5095810;28;20233;-61
2023/06/27 10:36:51;;;;;;;2.50;1.88;;;;;;;;;;5095834;28;20214;-61
2023/06/27 10:39:30;;;;;;;2.85;1.90;;;;;;;;;;5094913;28;20449;-61
2023/06/27 10:42:01;;;;;;;4.20;1.52;;;;;;;;;;5096299;28;20211;-61
2023/06/27 10:44:28;;;;;;;3.53;1.58;;;;;;;;;;5095422;28;20456;-61
2023/06/27 10:47:14;;;;;;;3.63;1.73;;;;;;;;;;5095793;28;20227;-61
2023/06/27 10:49:46;;;;;;;2.92;1.58;;;;;;;;;;5092346;28;20488;-61
2023/06/27 10:52:20;;;;;;;3.17;1.60;;;;;;;;;;5095113;28;20307;-61
2023/06/27 10:54:48;;;;;;;4.18;2.55;;;;;;;;;;5095617;28;20477;-62
2023/06/27 10:57:16;;;;;;;7.55;2.00;;;;;;;;;;5095763;28;20215;-63
2023/06/27 10:59:48;;;;;;;3.03;1.60;;;;;;;;;;5094794;28;20211;-62
2023/06/27 11:02:14;;;;;;;6.30;2.10;;;;;;;;;;5093982;28;20215;-62
2023/06/27 11:04:42;;;;;;;5.47;1.60;;;;;;;;;;5095352;28;20223;-62
2023/06/27 11:07:09;;;;;;;4.40;1.60;;;;;;;;;;5095985;28;20233;-62
2023/06/27 11:09:36;;;;;;;2.08;1.92;;;;;;;;;;5095498;28;20283;-61
2023/06/27 11:12:11;;;;;;;4.05;1.42;;;;;;;;;;5095037;28;20471;-61
2023/06/27 11:14:39;;;;;;;2.22;1.60;;;;;;;;;;5090785;28;20277;-61
2023/06/27 11:17:05;;;;;;;6.25;1.80;;;;;;;;;;5095342;28;20214;-60
2023/06/27 11:19:32;;;;;;;5.68;1.42;;;;;;;;;;5096028;28;20207;-61
2023/06/27 11:22:00;;;;;;;2.47;1.50;;;;;;;;;;5095985;28;20211;-61
2023/06/27 11:24:26;;;;;;;3.90;1.42;;;;;;;;;;5095969;28;20214;-62
2023/06/27 11:26:53;;;;;;;5.03;1.70;;;;;;;;;;5095385;28;20230;-61
2023/06/27 11:29:20;;;;;;;2.35;1.60;;;;;;;;;;5095080;28;20211;-61
2023/06/27 11:31:46;;;;;;;7.00;1.65;;;;;;;;;;5095907;28;20410;-62
2023/06/27 11:34:12;;;;;;;3.75;1.88;;;;;;;;;;5095331;28;20245;-61
2023/06/27 11:36:39;;;;;;;3.85;1.70;;;;;;;;;;5095684;28;20204;-61
2023/06/27 11:39:07;;;;;;;6.28;1.60;;;;;;;;;;5095642;28;20247;-61
2023/06/27 11:41:33;;;;;;;2.20;1.70;;;;;;;;;;5092149;28;20222;-61
2023/06/27 11:44:00;;;;;;;2.83;1.83;;;;;;;;;;5095574;28;20237;-61
2023/06/27 11:46:26;;;;;;;4.20;1.83;;;;;;;;;;5094958;28;20261;-62
2023/06/27 11:48:52;;;;;;;4.82;1.80;;;;;;;;;;5095615;28;20219;-62
2023/06/27 11:51:19;;;;;;;3.53;1.40;;;;;;;;;;5095098;28;20258;-62
2023/06/27 11:53:47;;;;;;;7.13;1.67;;;;;;;;;;5094741;28;20301;-62
2023/06/27 11:56:15;;;;;;;3.25;1.35;;;;;;;;;;5095078;28;20215;-62
2023/06/27 11:58:42;;;;;;;4.18;1.25;;;;;;;;;;5095364;28;20211;-62
2023/06/27 12:01:11;;;;;;;4.93;1.65;;;;;;;;;;5095015;28;20235;-62
2023/06/27 12:03:38;;;;;;;2.45;1.60;;;;;;;;;;5094913;28;20418;-62
2023/06/27 12:06:04;;;;;;;4.90;1.40;;;;;;;;;;5094961;28;20227;-62
2023/06/27 12:08:31;;;;;;;3.65;1.58;;;;;;;;;;5094969;28;20230;-62
2023/06/27 12:11:00;;;;;;;2.70;1.50;;;;;;;;;;5094334;28;20235;-62
2023/06/27 12:13:31;;;;;;;2.35;1.55;;;;;;;;;;5098662;28;20576;-62
2023/06/27 12:15:57;;;;;;;2.92;1.65;;;;;;;;;;5098744;28;20219;-62
2023/06/27 12:18:27;;;;;;;4.35;1.67;;;;;;;;;;5099260;28;21078;-62
2023/06/27 12:20:53;;;;;;;5.65;1.85;;;;;;;;;;5098999;28;20222;-62
2023/06/27 12:23:20;;;;;;;7.75;1.73;;;;;;;;;;5099292;28;20211;-62
2023/06/27 12:25:47;;;;;;;9.57;1.77;;;;;;;;;;5098901;28;20223;-62
2023/06/27 12:28:13;;;;;;;3.72;1.58;;;;;;;;;;5098538;28;20253;-61
2023/06/27 12:30:41;;;;;;;8.85;1.40;;;;;;;;;;5098550;28;20230;-61
2023/06/27 12:33:08;;;;;;;6.80;1.90;;;;;;;;;;5097624;28;20484;-61
2023/06/27 12:35:34;;;;;;;5.82;1.50;;;;;;;;;;5096301;28;20235;-61
2023/06/27 12:38:00;;;;;;;1.85;1.50;;;;;;;;;;5098027;28;20217;-62
2023/06/27 12:40:27;;;;;;;4.65;1.52;;;;;;;;;;5097793;28;20541;-61
2023/06/27 12:42:57;;;;;;;4.15;1.60;;;;;;;;;;5097608;28;20217;-61
2023/06/27 12:45:23;;;;;;;8.02;1.73;;;;;;;;;;5097534;28;20218;-61
2023/06/27 12:47:51;;;;;;;4.30;1.30;;;;;;;;;;5098336;28;20210;-61
2023/06/27 12:50:18;;;;;;;1.77;1.67;;;;;;;;;;5098319;28;20533;-61
2023/06/27 12:52:47;;;;;;;3.25;1.80;;;;;;;;;;5097719;28;20221;-61
2023/06/27 12:55:14;;;;;;;4.95;1.27;;;;;;;;;;5098026;28;20231;-61
2023/06/27 12:57:40;;;;;;;4.03;1.65;;;;;;;;;;5098000;28;20534;-61
2023/06/27 13:00:09;;;;;;;2.92;1.73;;;;;;;;;;5097607;28;20230;-62
2023/06/27 13:02:35;;;;;;;5.32;1.50;;;;;;;;;;5097757;28;20211;-61
2023/06/27 13:05:02;;;;;;;3.15;1.70;;;;;;;;;;5098209;28;20515;-61
2023/06/27 13:07:29;;;;;;;4.53;1.65;;;;;;;;;;5097495;28;20270;-61
2023/06/27 13:09:56;;;;;;;4.38;1.55;;;;;;;;;;5097200;28;20204;-61
2023/06/27 13:12:22;;;;;;;1.67;1.38;;;;;;;;;;5097923;28;20218;-61
2023/06/27 13:14:48;;;;;;;2.53;1.40;;;;;;;;;;5097393;28;20211;-61
2023/06/27 13:17:15;;;;;;;2.65;1.42;;;;;;;;;;5097124;28;20207;-61
2023/06/27 13:19:42;;;;;;;5.40;1.40;;;;;;;;;;5097795;28;20667;-61
2023/06/27 13:22:09;;;;;;;1.90;1.67;;;;;;;;;;5097188;28;20580;-61
2023/06/27 13:24:36;;;;;;;5.55;1.52;;;;;;;;;;5098602;28;20215;-61
2023/06/27 13:27:02;;;;;;;2.60;1.55;;;;;;;;;;5097925;28;20223;-61
2023/06/27 13:29:29;;;;;;;5.72;1.48;;;;;;;;;;5096693;28;20218;-61
2023/06/27 13:31:55;;;;;;;12.95;1.90;;;;;;;;;;5097636;28;20403;-61
2023/06/27 13:34:22;;;;;;;4.90;1.80;;;;;;;;;;5097379;28;20207;-62
2023/06/27 13:36:48;;;;;;;2.95;1.73;;;;;;;;;;5096934;28;20230;-62
2023/06/27 13:39:19;;;;;;;6.07;1.80;;;;;;;;;;5098368;28;20545;-61
2023/06/27 13:41:45;;;;;;;3.35;1.70;;;;;;;;;;5099426;28;20290;-62
2023/06/27 13:44:11;;;;;;;1.88;1.60;;;;;;;;;;5098395;28;20586;-60
2023/06/27 13:46:38;;;;;;;2.40;1.30;;;;;;;;;;5096750;28;20286;-61
2023/06/27 13:49:08;;;;;;;1.67;1.15;;;;;;;;;;5097500;28;20207;-61
2023/06/27 13:51:34;;;;;;;6.90;1.73;;;;;;;;;;5096804;28;20264;-61
2023/06/27 13:54:00;;;;;;;3.05;1.52;;;;;;;;;;5093304;28;20213;-61
2023/06/27 13:56:28;;;;;;;2.90;1.65;;;;;;;;;;5096477;28;20214;-61
2023/06/27 13:58:54;;;;;;;2.25;1.55;;;;;;;;;;5095986;28;20217;-61
2023/06/27 14:01:21;;;;;;;4.32;1.70;;;;;;;;;;5096284;28;20211;-61
2023/06/27 14:03:47;;;;;;;6.13;1.67;;;;;;;;;;5096964;28;20211;-61
2023/06/27 14:06:14;;;;;;;3.00;1.70;;;;;;;;;;5096849;28;20538;-62
2023/06/27 14:08:40;;;;;;;4.88;2.15;;;;;;;;;;5089051;28;20266;-61
2023/06/27 14:11:11;;;;;;;6.22;2.08;;;;;;;;;;5096347;28;21569;-62
2023/06/27 14:13:40;;;;;;;3.40;1.73;;;;;;;;;;5096156;28;20416;-61
2023/06/27 14:16:06;;;;;;;6.03;1.60;;;;;;;;;;5095550;28;20549;-61
2023/06/27 14:18:33;;;;;;;3.17;1.60;;;;;;;;;;5096358;28;20414;-61
2023/06/27 14:21:00;;;;;;;1.98;1.77;;;;;;;;;;5096232;28;20543;-62
2023/06/27 14:23:27;;;;;;;2.83;1.80;;;;;;;;;;5098226;28;20219;-60
2023/06/27 14:25:53;;;;;;;3.97;1.75;;;;;;;;;;5101191;28;20385;-60
2023/06/27 14:28:21;;;;;;;2.50;1.60;;;;;;;;;;5102543;28;20219;-60
2023/06/27 14:30:49;;;;;;;3.83;1.75;;;;;;;;;;5102842;28;20592;-60
2023/06/27 14:33:20;;;;;;;3.00;1.63;;;;;;;;;;5102750;28;20264;-60
2023/06/27 14:35:47;;;;;;;3.00;1.50;;;;;;;;;;5102351;28;20209;-60
2023/06/27 14:38:13;;;;;;;1.95;1.42;;;;;;;;;;5103149;28;20210;-60
2023/06/27 14:40:39;;;;;;;2.08;1.55;;;;;;;;;;5101651;28;20436;-60
2023/06/27 14:43:05;;;;;;;2.65;1.48;;;;;;;;;;5101849;28;20393;-60